Time;durP1;ratioP1;P1;durP2;ratioP2;P2;SDS_P1;SDS_P2;PMS_P1;PMS_P2;Temp;Humidity;BMP_temperature;BMP_pressure;BME280_temperature;BME280_humidity;BME280_pressure;Samples;Min_cycle;Max_cycle;Signal;HPM_P1;HPM_P2
2020/12/28 00:01:17;;;;;;;5.97;3.97;;;3.60;99.90;;;;;;8226011;28;20507;-74
2020/12/28 00:05:18;;;;;;;5.70;3.50;;;3.90;99.90;;;;;;8229503;28;20057;-75
2020/12/28 00:09:20;;;;;;;5.63;3.97;;;4.00;99.90;;;;;;8243223;28;20058;-74
2020/12/28 00:13:21;;;;;;;6.00;3.20;;;4.10;99.90;;;;;;8231341;28;20061;-74
2020/12/28 00:17:23;;;;;;;6.00;3.77;;;4.00;99.90;;;;;;8231206;28;20051;-74
2020/12/28 00:21:24;;;;;;;5.87;4.17;;;4.00;99.90;;;;;;8261018;28;20581;-75
2020/12/28 00:25:27;;;;;;;5.65;3.85;;;3.60;99.90;;;;;;8243441;28;20046;-75
2020/12/28 00:29:28;;;;;;;4.93;3.67;;;4.00;99.90;;;;;;8257397;28;20065;-74
2020/12/28 00:33:30;;;;;;;5.28;4.13;;;5.40;99.90;;;;;;8245406;28;20664;-75
2020/12/28 00:37:32;;;;;;;5.70;4.43;;;4.10;99.90;;;;;;8241620;28;20058;-75
2020/12/28 00:41:34;;;;;;;5.13;4.05;;;4.00;99.90;;;;;;8243877;28;20051;-76
2020/12/28 00:45:35;;;;;;;5.17;3.97;;;3.80;99.90;;;;;;8227510;28;20054;-75
2020/12/28 00:49:37;;;;;;;5.15;3.90;;;4.00;99.90;;;;;;8239454;28;21273;-74
2020/12/28 00:53:39;;;;;;;6.20;4.07;;;4.60;99.90;;;;;;8242932;28;20062;-74
2020/12/28 00:57:42;;;;;;;6.35;4.50;;;4.10;99.90;;;;;;8243357;28;20472;-75
2020/12/28 01:01:44;;;;;;;5.45;4.18;;;3.90;99.90;;;;;;8238274;28;20531;-75
2020/12/28 01:05:46;;;;;;;6.15;4.45;;;4.00;99.90;;;;;;8227726;28;20054;-75
2020/12/28 01:09:48;;;;;;;5.82;4.30;;;4.30;99.90;;;;;;8226192;28;20101;-71
2020/12/28 01:13:50;;;;;;;;;;;3.50;99.90;;;;;;8245125;28;20534;-75
2020/12/28 01:17:53;;;;;;;7.60;4.47;;;4.80;99.90;;;;;;8242794;28;19926;-75
2020/12/28 01:22:20;;;;;;;5.53;4.07;;;4.30;99.90;;;;;;8213272;28;20085;-74
2020/12/28 01:26:21;;;;;;;6.20;4.17;;;4.00;99.90;;;;;;8226328;28;20480;-75
2020/12/28 01:30:28;;;;;;;6.22;4.18;;;3.90;99.90;;;;;;8226939;28;20530;-74
2020/12/28 01:34:43;;;;;;;6.30;4.38;;;4.30;99.90;;;;;;8212112;28;20066;-74
2020/12/28 01:38:44;;;;;;;5.57;4.13;;;4.00;99.90;;;;;;8227002;28;20085;-74
2020/12/28 01:42:47;;;;;;;6.38;4.63;;;4.00;99.90;;;;;;8221886;28;20057;-75
2020/12/28 01:46:48;;;;;;;6.90;4.43;;;4.50;99.90;;;;;;8242503;28;20054;-75
2020/12/28 01:50:51;;;;;;;8.15;4.78;;;3.90;99.90;;;;;;8226388;28;20058;-75
2020/12/28 01:54:53;;;;;;;5.93;4.20;;;3.90;99.90;;;;;;8224438;28;20117;-75
2020/12/28 01:58:56;;;;;;;6.25;4.72;;;4.50;99.90;;;;;;8224010;28;20066;-75
2020/12/28 02:03:07;;;;;;;6.00;4.05;;;3.60;99.90;;;;;;8227083;28;20531;-75
2020/12/28 02:07:33;;;;;;;6.22;4.32;;;4.30;99.90;;;;;;8227740;28;20179;-74
2020/12/28 02:11:34;;;;;;;6.00;4.32;;;4.00;99.90;;;;;;8240553;28;20054;-76
2020/12/28 02:15:37;;;;;;;6.40;4.60;;;3.70;99.90;;;;;;8257871;28;20145;-76
2020/12/28 02:20:03;;;;;;;7.07;5.18;;;3.40;99.90;;;;;;8211844;28;20228;-76
2020/12/28 02:24:05;;;;;;;7.03;4.82;;;4.00;99.90;;;;;;8227243;28;20618;-75
2020/12/28 02:28:11;;;;;;;6.35;4.70;;;3.90;99.90;;;;;;8222313;28;20050;-75
2020/12/28 02:32:13;;;;;;;7.13;4.80;;;4.20;99.90;;;;;;8227955;28;20404;-75
2020/12/28 02:36:47;;;;;;;6.63;4.45;;;4.70;99.90;;;;;;8231933;28;20058;-74
2020/12/28 02:40:49;;;;;;;;;;;3.90;99.90;;;;;;8229283;28;20105;-74
2020/12/28 02:44:51;;;;;;;5.78;4.60;;;4.20;99.90;;;;;;8232186;28;19925;-75
2020/12/28 02:49:11;;;;;;;6.00;4.38;;;4.00;99.90;;;;;;8244738;28;20423;-74
2020/12/28 02:53:31;;;;;;;7.15;4.05;;;3.90;99.90;;;;;;8248240;28;20542;-75
2020/12/28 02:57:51;;;;;;;5.57;4.18;;;3.80;99.90;;;;;;8246410;28;20083;-75
2020/12/28 03:02:11;;;;;;;7.38;4.40;;;3.80;99.90;;;;;;8249372;28;20057;-76
2020/12/28 03:06:31;;;;;;;7.20;4.43;;;4.40;99.90;;;;;;8248076;28;20077;-75
2020/12/28 03:10:52;;;;;;;6.65;3.78;;;3.90;99.90;;;;;;8234239;28;20567;-75
2020/12/28 03:15:12;;;;;;;6.10;4.25;;;3.60;99.90;;;;;;8244903;28;20459;-75
2020/12/28 03:19:31;;;;;;;7.03;4.53;;;3.80;99.90;;;;;;8247382;28;20057;-74
2020/12/28 03:23:52;;;;;;;6.25;4.55;;;4.10;99.90;;;;;;8246431;28;20375;-74
2020/12/28 03:28:13;;;;;;;6.83;4.50;;;3.50;99.90;;;;;;8237748;28;20152;-74
2020/12/28 03:32:33;;;;;;;6.32;4.30;;;5.00;99.90;;;;;;8246702;28;20060;-74
2020/12/28 03:37:12;;;;;;;6.97;4.53;;;3.60;99.90;;;;;;8235102;28;20068;-75
2020/12/28 03:41:33;;;;;;;5.88;4.25;;;4.00;99.90;;;;;;8246971;28;20093;-75
2020/12/28 03:45:53;;;;;;;5.78;4.22;;;4.30;99.90;;;;;;8246179;28;20518;-75
2020/12/28 03:50:13;;;;;;;7.38;4.43;;;4.00;99.90;;;;;;8249166;28;20069;-75
2020/12/28 03:54:33;;;;;;;6.00;4.20;;;4.60;99.90;;;;;;8248272;28;20057;-75
2020/12/28 03:59:13;;;;;;;6.85;4.05;;;3.80;99.90;;;;;;8114839;29;20072;-75
2020/12/28 04:03:33;;;;;;;5.55;4.32;;;3.80;99.90;;;;;;8172759;28;20109;-75
2020/12/28 04:08:07;;;;;;;5.50;4.15;;;4.10;99.90;;;;;;8201498;28;20464;-75
2020/12/28 04:12:28;;;;;;;8.48;4.25;;;4.40;99.90;;;;;;8245187;28;20056;-75
2020/12/28 04:16:30;;;;;;;6.25;4.00;;;3.90;99.90;;;;;;8243588;28;20578;-74
2020/12/28 04:20:31;;;;;;;6.07;4.47;;;3.60;99.90;;;;;;8239998;28;20093;-74
2020/12/28 04:24:35;;;;;;;6.13;4.50;;;3.50;99.90;;;;;;8237621;28;20084;-74
2020/12/28 04:28:37;;;;;;;7.18;4.47;;;4.50;99.90;;;;;;8223040;28;20097;-74
2020/12/28 04:32:38;;;;;;;5.97;3.73;;;4.20;99.90;;;;;;8238118;28;20061;-74
2020/12/28 04:36:40;;;;;;;6.07;4.30;;;4.00;99.90;;;;;;8240556;28;20046;-74
2020/12/28 04:40:41;;;;;;;7.10;4.55;;;3.50;99.90;;;;;;8243071;28;20275;-75
2020/12/28 04:44:42;;;;;;;10.75;4.68;;;3.90;99.90;;;;;;8245396;28;20062;-76
2020/12/28 04:48:44;;;;;;;8.53;4.30;;;4.00;99.90;;;;;;8245025;28;20054;-75
2020/12/28 04:52:46;;;;;;;6.95;4.75;;;4.30;99.90;;;;;;8223691;28;20054;-75
2020/12/28 04:56:48;;;;;;;6.13;4.07;;;4.10;99.90;;;;;;8226636;28;20815;-75
2020/12/28 05:00:59;;;;;;;6.03;4.70;;;4.00;99.90;;;;;;8224594;28;20200;-73
2020/12/28 05:05:08;;;;;;;6.32;4.68;;;4.10;99.90;;;;;;8229096;28;20062;-74
2020/12/28 05:09:09;;;;;;;5.32;4.25;;;4.00;99.90;;;;;;8242318;28;20057;-75
2020/12/28 05:13:17;;;;;;;10.27;4.70;;;5.00;99.90;;;;;;8241486;28;20050;-74
2020/12/28 05:17:18;;;;;;;8.10;4.60;;;4.00;99.90;;;;;;8226198;28;20470;-74
2020/12/28 05:21:26;;;;;;;7.43;4.43;;;4.00;99.90;;;;;;8226635;28;20054;-75
2020/12/28 05:25:30;;;;;;;7.95;4.50;;;4.10;99.90;;;;;;8257455;28;20065;-74
2020/12/28 05:29:34;;;;;;;6.30;4.40;;;3.50;99.90;;;;;;8242423;28;20054;-74
2020/12/28 05:33:36;;;;;;;6.75;4.95;;;3.80;99.90;;;;;;8242563;28;20097;-75
2020/12/28 05:37:38;;;;;;;7.28;4.45;;;4.00;99.90;;;;;;8228321;28;20058;-75
2020/12/28 05:41:40;;;;;;;;;;;3.40;99.90;;;;;;8242416;28;20082;-75
2020/12/28 05:45:45;;;;;;;6.95;4.30;;;4.20;99.90;;;;;;8248181;28;19932;-75
2020/12/28 05:49:49;;;;;;;5.82;4.20;;;4.10;99.90;;;;;;8219950;28;20059;-75
2020/12/28 05:53:52;;;;;;;7.30;4.50;;;3.50;99.90;;;;;;8242109;28;20042;-74
2020/12/28 05:57:55;;;;;;;6.93;4.88;;;4.00;99.90;;;;;;8242138;28;20058;-75
2020/12/28 06:01:58;;;;;;;6.38;4.15;;;4.70;99.90;;;;;;8226685;28;20046;-74
2020/12/28 06:06:00;;;;;;;6.13;4.28;;;4.00;99.90;;;;;;8248356;28;20050;-75
2020/12/28 06:10:03;;;;;;;8.68;4.78;;;3.90;99.90;;;;;;8230556;28;20134;-76
2020/12/28 06:14:12;;;;;;;6.70;4.15;;;4.90;99.90;;;;;;8250576;28;20066;-75
2020/12/28 06:18:18;;;;;;;5.97;4.03;;;4.20;99.90;;;;;;8216256;28;20112;-76
2020/12/28 06:22:20;;;;;;;5.45;4.07;;;4.80;99.90;;;;;;8231836;28;20446;-76
2020/12/28 06:26:21;;;;;;;7.80;4.45;;;3.90;99.90;;;;;;8227406;28;20109;-76
2020/12/28 06:30:23;;;;;;;5.77;4.27;;;5.80;99.90;;;;;;8245673;28;20101;-76
2020/12/28 06:34:24;;;;;;;6.57;4.50;;;4.70;99.90;;;;;;8249084;28;20460;-76
2020/12/28 06:38:26;;;;;;;5.73;4.33;;;4.70;99.90;;;;;;8249581;28;20043;-75
2020/12/28 06:42:30;;;;;;;5.60;4.05;;;4.10;99.90;;;;;;8231355;28;20058;-75
2020/12/28 06:46:32;;;;;;;8.80;4.27;;;4.90;99.90;;;;;;8245532;28;20074;-75
2020/12/28 06:50:33;;;;;;;6.83;4.60;;;3.60;99.90;;;;;;8233128;28;20164;-75
2020/12/28 06:54:35;;;;;;;5.90;4.47;;;4.00;99.90;;;;;;8229699;28;20082;-74
2020/12/28 06:58:37;;;;;;;6.93;4.75;;;4.00;99.90;;;;;;8260906;28;20058;-75
2020/12/28 07:02:38;;;;;;;;;;;5.20;99.90;;;;;;8231362;28;20077;-74
2020/12/28 07:06:40;;;;;;;6.10;4.43;;;4.20;99.90;;;;;;8246358;28;19922;-75
2020/12/28 07:10:41;;;;;;;5.50;3.70;;;4.20;99.90;;;;;;8240913;28;20057;-75
2020/12/28 07:14:43;;;;;;;7.53;4.90;;;4.10;99.90;;;;;;8247748;28;20515;-76
2020/12/28 07:18:44;;;;;;;7.93;4.23;;;3.60;99.90;;;;;;8230870;28;20069;-74
2020/12/28 07:22:46;;;;;;;6.13;4.53;;;4.90;99.90;;;;;;8227453;28;20057;-75
2020/12/28 07:26:47;;;;;;;5.90;3.90;;;5.00;99.90;;;;;;8230185;28;20054;-74
2020/12/28 07:30:56;;;;;;;5.72;3.80;;;4.60;99.90;;;;;;8228748;28;20560;-74
2020/12/28 07:34:57;;;;;;;6.28;3.53;;;4.40;99.90;;;;;;8240300;28;20073;-74
2020/12/28 07:39:00;;;;;;;5.97;3.77;;;4.40;99.90;;;;;;8246975;28;20100;-74
2020/12/28 07:43:08;;;;;;;5.40;4.13;;;4.20;99.90;;;;;;8228869;28;20055;-74
2020/12/28 07:47:15;;;;;;;5.28;3.72;;;4.70;99.90;;;;;;8260884;28;20054;-74
2020/12/28 07:51:20;;;;;;;6.00;4.15;;;4.80;99.90;;;;;;8228037;28;20058;-74
2020/12/28 07:55:26;;;;;;;5.10;4.00;;;4.50;99.90;;;;;;8244426;28;20051;-74
2020/12/28 07:59:40;;;;;;;6.47;4.07;;;5.20;99.90;;;;;;8245559;28;20046;-73
2020/12/28 08:03:47;;;;;;;5.18;3.95;;;5.10;99.90;;;;;;8240983;28;20493;-73
2020/12/28 08:07:49;;;;;;;5.50;3.78;;;4.60;99.90;;;;;;8228617;28;20054;-72
2020/12/28 08:12:02;;;;;;;5.53;3.85;;;5.10;99.90;;;;;;8243599;28;20101;-73
2020/12/28 08:16:09;;;;;;;5.78;3.80;;;4.60;99.90;;;;;;8244730;28;20054;-73
2020/12/28 08:20:12;;;;;;;5.60;3.20;;;4.40;99.90;;;;;;8244221;28;20408;-72
2020/12/28 08:24:22;;;;;;;4.88;3.33;;;4.80;99.90;;;;;;8240962;28;20046;-71
2020/12/28 08:28:23;;;;;;;5.63;3.75;;;4.60;99.80;;;;;;8225771;28;20053;-71
2020/12/28 08:32:30;;;;;;;4.75;3.30;;;4.50;99.90;;;;;;8231363;28;20058;-71
2020/12/28 08:36:33;;;;;;;6.05;3.15;;;4.50;99.90;;;;;;8238950;28;20163;-71
2020/12/28 08:40:34;;;;;;;5.10;3.50;;;4.50;99.90;;;;;;8235655;28;20475;-71
2020/12/28 08:44:40;;;;;;;5.47;3.27;;;4.40;99.90;;;;;;8252453;28;20531;-71
2020/12/28 08:48:47;;;;;;;8.55;3.00;;;4.40;99.90;;;;;;8245847;28;20104;-71
2020/12/28 08:52:50;;;;;;;6.40;2.95;;;4.40;99.90;;;;;;8222584;28;20424;-71
2020/12/28 08:56:52;;;;;;;4.47;3.30;;;4.60;99.90;;;;;;8240269;28;20577;-71
2020/12/28 09:00:53;;;;;;;4.77;3.03;;;4.60;99.90;;;;;;8206820;28;20065;-71
2020/12/28 09:04:57;;;;;;;4.03;3.00;;;4.50;99.90;;;;;;8241537;28;21114;-72
2020/12/28 09:08:58;;;;;;;5.50;3.00;;;4.40;99.90;;;;;;8221482;28;21853;-71
2020/12/28 09:12:59;;;;;;;7.37;3.37;;;4.60;99.90;;;;;;8240413;28;20061;-71
2020/12/28 09:17:01;;;;;;;7.77;3.47;;;4.20;99.90;;;;;;8238139;28;20054;-71
2020/12/28 09:21:02;;;;;;;4.93;2.97;;;4.40;99.90;;;;;;8242171;28;20435;-71
2020/12/28 09:25:04;;;;;;;4.97;2.90;;;4.30;99.90;;;;;;8256623;28;20116;-72
2020/12/28 09:29:05;;;;;;;4.60;3.13;;;4.50;99.90;;;;;;8224270;28;20982;-71
2020/12/28 09:33:06;;;;;;;6.03;3.30;;;4.40;99.90;;;;;;8225617;28;20062;-71
2020/12/28 09:37:08;;;;;;;3.53;2.50;;;4.20;99.90;;;;;;8218990;28;20405;-71
2020/12/28 09:41:10;;;;;;;4.55;3.08;;;3.80;99.90;;;;;;8219771;28;20046;-71
2020/12/28 09:49:31;;;;;;;4.65;2.33;;;4.20;99.90;;;;;;8226263;28;20520;-71
2020/12/28 09:53:32;;;;;;;3.20;1.60;;;3.90;99.90;;;;;;8237225;28;20053;-71
2020/12/28 09:57:34;;;;;;;4.67;2.47;;;4.50;99.90;;;;;;8222343;28;20472;-71
2020/12/28 10:01:35;;;;;;;3.33;1.70;;;4.00;99.90;;;;;;8239309;28;20058;-71
2020/12/28 10:05:36;;;;;;;3.67;1.33;;;4.00;99.90;;;;;;8240073;28;20113;-71
2020/12/28 10:09:38;;;;;;;4.63;1.90;;;3.70;99.90;;;;;;8238518;28;20047;-71
2020/12/28 10:13:39;;;;;;;3.30;2.00;;;3.80;99.90;;;;;;8242627;28;20085;-71
2020/12/28 10:18:10;;;;;;;3.23;1.73;;;3.90;99.90;;;;;;8241064;28;20073;-71
2020/12/28 10:22:12;;;;;;;3.65;1.90;;;4.00;99.90;;;;;;8238418;28;20061;-70
2020/12/28 10:26:18;;;;;;;3.97;1.85;;;4.20;99.90;;;;;;8212154;28;20046;-71
2020/12/28 10:30:21;;;;;;;4.47;1.80;;;4.00;99.90;;;;;;8226190;28;20812;-71
2020/12/28 10:34:23;;;;;;;3.67;1.88;;;4.00;99.90;;;;;;8212054;28;20104;-71
2020/12/28 10:38:25;;;;;;;3.70;2.03;;;3.90;99.90;;;;;;8242277;28;20058;-71
2020/12/28 10:42:28;;;;;;;3.47;1.85;;;4.00;99.90;;;;;;8220177;28;20419;-71
2020/12/28 10:46:29;;;;;;;4.43;2.60;;;3.80;99.90;;;;;;8223450;28;20136;-71
2020/12/28 10:50:30;;;;;;;6.10;2.07;;;4.20;99.90;;;;;;8240009;28;20055;-71
2020/12/28 10:54:32;;;;;;;4.83;2.33;;;3.90;99.90;;;;;;8233141;28;20051;-71
2020/12/28 10:58:36;;;;;;;3.63;2.10;;;3.80;99.90;;;;;;8248223;28;20046;-71
2020/12/28 11:02:38;;;;;;;5.93;2.40;;;4.10;99.90;;;;;;8231048;28;20058;-71
2020/12/28 11:06:42;;;;;;;5.37;2.47;;;4.10;99.90;;;;;;8227365;28;20050;-71
2020/12/28 11:10:43;;;;;;;4.82;2.20;;;3.80;99.90;;;;;;8232974;28;20328;-71
2020/12/28 11:14:45;;;;;;;7.10;2.10;;;4.00;99.90;;;;;;8247284;28;20124;-71
2020/12/28 11:18:46;;;;;;;6.18;2.83;;;4.40;99.90;;;;;;8226999;28;20472;-71
2020/12/28 11:22:48;;;;;;;4.67;2.33;;;4.00;99.90;;;;;;8228597;23;20595;-71
2020/12/28 11:26:51;;;;;;;4.45;2.40;;;4.10;99.90;;;;;;8207270;28;20157;-71
2020/12/28 11:30:52;;;;;;;5.20;2.73;;;4.10;99.90;;;;;;8181416;28;20093;-71
2020/12/28 11:34:54;;;;;;;5.63;2.90;;;5.10;99.90;;;;;;8209467;28;20118;-71
2020/12/28 11:38:55;;;;;;;5.47;2.43;;;4.00;99.90;;;;;;8206751;28;20459;-72
2020/12/28 11:42:56;;;;;;;5.37;2.70;;;4.30;99.90;;;;;;8209397;28;20951;-72
2020/12/28 11:46:58;;;;;;;5.47;2.80;;;4.10;99.90;;;;;;8211546;28;20473;-72
2020/12/28 11:51:04;;;;;;;4.87;2.73;;;4.50;99.90;;;;;;8211720;28;20062;-72
2020/12/28 11:55:05;;;;;;;5.53;2.63;;;3.70;99.90;;;;;;8205035;28;20046;-71
2020/12/28 11:59:06;;;;;;;4.37;2.77;;;4.00;99.90;;;;;;8206002;28;20062;-72
2020/12/28 12:03:08;;;;;;;4.50;2.63;;;4.40;99.90;;;;;;8193590;28;20055;-72
2020/12/28 12:07:09;;;;;;;4.43;3.03;;;4.30;99.90;;;;;;8193970;28;20501;-71
2020/12/28 12:11:11;;;;;;;6.55;2.80;;;4.00;99.90;;;;;;8204049;28;20047;-72
2020/12/28 12:15:12;;;;;;;4.80;3.03;;;4.60;99.90;;;;;;8202732;28;20069;-72
2020/12/28 12:19:14;;;;;;;5.13;3.22;;;5.20;99.90;;;;;;8193411;28;20147;-72
2020/12/28 12:23:16;;;;;;;5.57;3.17;;;5.00;99.90;;;;;;8197443;28;20046;-72
2020/12/28 12:27:18;;;;;;;5.95;3.15;;;4.00;99.90;;;;;;8195421;28;20545;-72
2020/12/28 12:31:20;;;;;;;;;;;4.10;99.90;;;;;;8210500;28;20121;-71
2020/12/28 12:35:21;;;;;;;6.85;3.30;;;4.30;99.90;;;;;;8215265;28;19921;-72
2020/12/28 12:39:22;;;;;;;6.77;3.57;;;4.10;99.90;;;;;;8208096;28;20051;-72
2020/12/28 12:43:24;;;;;;;6.87;3.63;;;4.10;99.90;;;;;;8184835;28;20079;-72
2020/12/28 12:47:28;;;;;;;5.72;3.58;;;3.70;99.90;;;;;;8206283;28;20461;-71
2020/12/28 12:51:29;;;;;;;6.57;3.87;;;4.80;99.90;;;;;;8206719;28;20099;-72
2020/12/28 12:55:31;;;;;;;7.60;3.63;;;3.70;99.90;;;;;;8196289;28;20058;-72
2020/12/28 13:00:01;;;;;;;7.13;4.30;;;4.50;99.90;;;;;;8199598;28;20055;-72
2020/12/28 13:03:54;;;;;;;8.57;4.07;;;4.80;99.90;;;;;;8206543;28;20440;-72
2020/12/28 13:07:56;;;;;;;;;;;4.60;99.90;;;;;;8215171;28;20535;-72
2020/12/28 13:11:58;;;;;;;7.30;4.18;;;4.20;99.90;;;;;;8193512;28;19938;-72
2020/12/28 13:16:00;;;;;;;6.77;4.10;;;4.10;99.90;;;;;;8193737;28;20360;-74
2020/12/28 13:20:02;;;;;;;8.00;4.43;;;4.30;99.90;;;;;;8194592;28;20050;-72
2020/12/28 13:24:04;;;;;;;8.57;4.05;;;4.30;99.90;;;;;;8191471;28;20062;-72
2020/12/28 13:28:05;;;;;;;7.60;4.43;;;4.40;99.90;;;;;;8209490;28;20059;-72
2020/12/28 13:32:07;;;;;;;8.03;4.13;;;3.90;99.90;;;;;;8204647;28;20052;-72
2020/12/28 13:36:08;;;;;;;6.93;4.55;;;3.90;99.90;;;;;;8188764;28;20099;-72
2020/12/28 13:40:10;;;;;;;7.07;4.47;;;5.00;99.90;;;;;;8189276;28;20062;-72
2020/12/28 13:44:11;;;;;;;8.77;4.20;;;3.90;99.90;;;;;;8189879;28;20465;-72
2020/12/28 13:48:13;;;;;;;6.33;3.90;;;4.40;99.90;;;;;;8206872;28;20509;-72
2020/12/28 13:52:14;;;;;;;7.83;4.77;;;4.00;99.90;;;;;;8198691;28;21019;-72
2020/12/28 13:56:18;;;;;;;9.23;4.70;;;4.10;99.90;;;;;;8206829;28;20083;-72
2020/12/28 14:00:19;;;;;;;7.65;4.68;;;4.20;99.90;;;;;;8209680;28;20118;-72
2020/12/28 14:04:21;;;;;;;8.00;4.87;;;3.50;99.90;;;;;;8194426;28;20532;-72
2020/12/28 14:08:23;;;;;;;;;;;4.00;99.90;;;;;;8208810;28;20480;-72
2020/12/28 14:12:24;;;;;;;7.65;4.20;;;3.90;99.90;;;;;;8204961;28;20349;-72
2020/12/28 14:16:28;;;;;;;8.27;5.20;;;3.90;99.90;;;;;;8191850;28;20058;-72
2020/12/28 14:20:30;;;;;;;9.25;4.82;;;4.00;99.90;;;;;;8178978;28;20075;-72
2020/12/28 14:24:31;;;;;;;7.00;4.33;;;4.50;99.90;;;;;;8177557;28;20485;-72
2020/12/28 14:28:32;;;;;;;7.60;4.80;;;3.70;99.90;;;;;;8207457;28;20209;-72
2020/12/28 14:32:34;;;;;;;8.43;4.53;;;4.30;99.90;;;;;;8197164;28;20054;-72
2020/12/28 14:36:35;;;;;;;7.57;4.73;;;4.20;99.90;;;;;;8207023;28;20059;-72
2020/12/28 14:40:37;;;;;;;7.43;5.00;;;4.00;99.90;;;;;;8217007;28;20066;-72
2020/12/28 14:44:38;;;;;;;7.72;4.38;;;4.00;99.90;;;;;;8220339;28;20543;-72
2020/12/28 14:48:40;;;;;;;7.93;5.03;;;3.70;99.90;;;;;;8201001;28;20047;-72
2020/12/28 14:52:41;;;;;;;7.50;4.90;;;4.40;99.90;;;;;;8208683;28;20055;-72
2020/12/28 14:56:43;;;;;;;8.50;4.73;;;4.50;99.90;;;;;;8209527;28;20335;-72
2020/12/28 15:00:44;;;;;;;7.93;4.83;;;4.10;99.90;;;;;;8204820;28;20055;-72
2020/12/28 15:04:45;;;;;;;8.83;4.87;;;4.40;99.90;;;;;;8192005;28;20451;-72
2020/12/28 15:08:47;;;;;;;9.37;4.83;;;4.30;99.90;;;;;;8190580;28;20477;-72
2020/12/28 15:12:53;;;;;;;8.13;3.97;;;4.10;99.90;;;;;;8208526;28;20086;-72
2020/12/28 15:16:55;;;;;;;8.40;4.67;;;4.10;99.90;;;;;;8197270;28;20055;-72
2020/12/28 15:20:57;;;;;;;7.18;4.45;;;4.10;99.90;;;;;;8195346;28;20062;-72
2020/12/28 15:24:59;;;;;;;;;;;4.10;99.90;;;;;;8204212;28;20062;-72
2020/12/28 15:29:02;;;;;;;10.43;5.28;;;4.40;99.90;;;;;;8205323;28;19969;-72
2020/12/28 15:33:04;;;;;;;10.73;5.60;;;4.60;99.90;;;;;;8195889;28;20054;-72
2020/12/28 15:37:05;;;;;;;10.50;5.93;;;4.10;99.90;;;;;;8212562;28;20517;-72
2020/12/28 15:41:07;;;;;;;11.57;6.57;;;4.10;99.90;;;;;;8210530;28;20059;-72
2020/12/28 15:45:08;;;;;;;200.33;78.37;;;4.00;99.90;;;;;;8195277;28;20548;-72
2020/12/28 15:49:09;;;;;;;10.50;5.88;;;4.10;99.90;;;;;;8205809;28;20147;-72
2020/12/28 15:53:11;;;;;;;12.73;6.97;;;4.20;99.90;;;;;;8211280;28;20508;-72
2020/12/28 15:57:12;;;;;;;10.93;6.17;;;4.20;99.90;;;;;;8210993;28;20122;-72
2020/12/28 16:01:16;;;;;;;8.50;5.32;;;4.10;99.90;;;;;;8192283;28;20250;-71
2020/12/28 16:05:17;;;;;;;11.13;6.13;;;4.50;99.90;;;;;;8177592;28;20051;-72
2020/12/28 16:09:19;;;;;;;10.55;6.38;;;4.50;99.90;;;;;;8194495;28;20049;-71
2020/12/28 16:13:20;;;;;;;12.47;6.43;;;4.30;99.90;;;;;;8209447;28;20513;-72
2020/12/28 16:17:22;;;;;;;11.30;6.72;;;3.70;99.90;;;;;;8211674;28;21092;-72
2020/12/28 16:21:24;;;;;;;20.23;8.50;;;4.60;99.90;;;;;;8191772;28;20098;-72
2020/12/28 16:25:25;;;;;;;13.70;7.40;;;5.00;99.90;;;;;;8198810;28;20468;-72
2020/12/28 16:29:27;;;;;;;9.97;6.57;;;3.70;99.90;;;;;;8209479;28;20063;-71
2020/12/28 16:33:31;;;;;;;10.57;5.90;;;4.10;99.90;;;;;;8211304;28;20587;-72
2020/12/28 16:37:33;;;;;;;10.18;5.38;;;5.40;99.90;;;;;;8209216;28;20987;-71
2020/12/28 16:41:34;;;;;;;10.50;5.93;;;4.20;99.90;;;;;;8204410;28;20121;-72
2020/12/28 16:45:35;;;;;;;9.93;5.72;;;4.10;99.90;;;;;;8192880;28;20085;-72
2020/12/28 16:49:37;;;;;;;9.70;5.97;;;4.30;99.90;;;;;;8191356;28;20504;-72
2020/12/28 16:53:39;;;;;;;10.18;6.00;;;4.20;99.90;;;;;;8172554;28;20054;-72
2020/12/28 16:57:40;;;;;;;9.68;5.50;;;4.20;99.90;;;;;;8173318;28;20058;-72
2020/12/28 17:01:41;;;;;;;11.93;6.13;;;4.20;99.90;;;;;;8204321;28;20062;-72
2020/12/28 17:05:43;;;;;;;10.73;6.73;;;4.70;99.90;;;;;;8187502;28;20050;-72
2020/12/28 17:09:44;;;;;;;10.70;6.53;;;5.00;99.90;;;;;;8182348;28;20051;-72
2020/12/28 17:13:46;;;;;;;10.73;6.03;;;4.30;99.90;;;;;;8194840;28;20128;-72
2020/12/28 17:17:47;;;;;;;15.07;7.07;;;4.20;99.90;;;;;;8201528;28;20547;-72
2020/12/28 17:21:50;;;;;;;11.97;7.47;;;4.30;99.90;;;;;;8203519;28;20489;-72
2020/12/28 17:25:51;;;;;;;10.82;6.55;;;4.30;99.90;;;;;;8183651;28;20058;-72
2020/12/28 17:29:53;;;;;;;11.57;7.33;;;4.50;99.90;;;;;;8185585;28;20521;-72
2020/12/28 17:33:54;;;;;;;10.55;6.20;;;4.10;99.90;;;;;;8196202;28;21137;-72
2020/12/28 17:37:56;;;;;;;11.60;6.83;;;4.50;99.90;;;;;;8186413;28;20085;-72
2020/12/28 17:42:04;;;;;;;11.25;6.88;;;3.60;99.90;;;;;;8197963;28;20065;-72
2020/12/28 17:46:05;;;;;;;14.73;8.88;;;4.50;99.90;;;;;;8203684;28;20130;-72
2020/12/28 17:50:07;;;;;;;11.23;7.10;;;4.10;99.90;;;;;;8203184;28;20525;-72
2020/12/28 17:54:09;;;;;;;11.35;6.68;;;4.00;99.90;;;;;;8204815;28;20094;-72
2020/12/28 17:58:11;;;;;;;13.10;6.88;;;4.00;99.90;;;;;;8205652;28;20047;-72
2020/12/28 18:02:13;;;;;;;11.65;7.00;;;4.50;99.90;;;;;;8208050;28;20278;-72
2020/12/28 18:06:15;;;;;;;11.43;6.50;;;4.10;99.90;;;;;;8196010;28;20105;-72
2020/12/28 18:10:17;;;;;;;;;;;3.90;99.90;;;;;;8215520;28;20453;-72
2020/12/28 18:14:18;;;;;;;12.00;7.65;;;4.90;99.90;;;;;;8198681;28;20456;-72
2020/12/28 18:18:20;;;;;;;11.33;6.53;;;4.00;99.90;;;;;;8216719;28;20058;-72
2020/12/28 18:22:22;;;;;;;12.27;7.23;;;3.60;99.90;;;;;;8198399;28;21163;-72
2020/12/28 18:26:24;;;;;;;10.60;6.78;;;4.70;99.90;;;;;;8202474;28;20070;-72
2020/12/28 18:30:25;;;;;;;13.27;7.00;;;5.20;99.90;;;;;;8208965;28;20050;-72
2020/12/28 18:34:27;;;;;;;12.40;8.03;;;4.10;99.90;;;;;;8208445;28;20050;-75
2020/12/28 18:38:29;;;;;;;13.95;7.68;;;4.30;99.90;;;;;;8197969;28;20476;-75
2020/12/28 18:42:30;;;;;;;12.23;6.85;;;4.40;99.90;;;;;;8212722;28;20063;-76
2020/12/28 18:46:31;;;;;;;12.43;8.73;;;4.10;99.90;;;;;;8213430;28;20047;-76
2020/12/28 18:50:34;;;;;;;10.97;7.47;;;4.10;99.90;;;;;;8195215;28;20519;-75
2020/12/28 18:54:37;;;;;;;12.57;7.40;;;4.10;99.90;;;;;;8213779;28;20537;-75
2020/12/28 18:58:38;;;;;;;12.93;7.97;;;4.10;99.90;;;;;;8181583;28;20517;-76
2020/12/28 19:02:40;;;;;;;13.90;8.07;;;4.40;99.90;;;;;;8213707;28;20113;-76
2020/12/28 19:06:41;;;;;;;13.80;7.68;;;4.30;99.90;;;;;;8195981;28;20427;-75
2020/12/28 19:10:43;;;;;;;11.43;7.60;;;4.40;99.90;;;;;;8209991;28;20047;-76
2020/12/28 19:14:44;;;;;;;11.13;6.80;;;4.40;99.90;;;;;;8212963;28;20452;-76
2020/12/28 19:18:46;;;;;;;14.90;7.63;;;4.20;99.90;;;;;;8215817;28;20465;-75
2020/12/28 19:22:47;;;;;;;15.10;7.27;;;3.90;99.90;;;;;;8200068;28;20042;-75
2020/12/28 19:26:50;;;;;;;11.88;7.47;;;4.30;99.90;;;;;;8193250;28;20524;-75
2020/12/28 19:30:51;;;;;;;13.90;7.80;;;4.20;99.90;;;;;;8217836;28;20470;-77
2020/12/28 19:34:53;;;;;;;16.33;8.63;;;4.40;99.90;;;;;;8196988;28;20410;-75
2020/12/28 19:38:54;;;;;;;12.80;7.93;;;4.60;99.90;;;;;;8178863;28;20069;-74
2020/12/28 19:42:56;;;;;;;14.67;9.20;;;4.10;99.90;;;;;;8194903;28;20121;-75
2020/12/28 19:46:57;;;;;;;13.30;7.75;;;4.10;99.90;;;;;;8208889;28;20568;-76
2020/12/28 19:51:02;;;;;;;12.83;8.47;;;4.20;99.90;;;;;;8194648;28;20047;-75
2020/12/28 19:55:04;;;;;;;21.25;14.10;;;4.20;99.90;;;;;;8209609;28;20134;-74
2020/12/28 19:59:11;;;;;;;13.25;8.95;;;3.90;99.90;;;;;;8192992;28;20579;-76
2020/12/28 20:03:13;;;;;;;21.75;16.55;;;4.60;99.90;;;;;;8209756;28;20130;-74
2020/12/28 20:07:14;;;;;;;17.30;9.97;;;3.90;99.90;;;;;;8212138;28;20051;-75
2020/12/28 20:11:20;;;;;;;16.90;10.57;;;4.30;99.90;;;;;;8208739;28;20501;-76
2020/12/28 20:15:22;;;;;;;15.68;10.25;;;4.80;99.90;;;;;;8193298;28;20429;-75
2020/12/28 20:19:23;;;;;;;16.57;10.10;;;4.70;99.90;;;;;;8202818;28;20061;-75
2020/12/28 20:23:24;;;;;;;14.43;9.27;;;4.10;99.90;;;;;;8207517;28;20081;-75
2020/12/28 20:27:26;;;;;;;13.03;7.97;;;4.50;99.90;;;;;;8177778;28;20054;-75
2020/12/28 20:31:27;;;;;;;13.40;8.23;;;4.40;99.90;;;;;;8175785;28;20046;-75
2020/12/28 20:35:29;;;;;;;17.50;10.13;;;4.30;99.90;;;;;;8197229;28;20435;-75
2020/12/28 20:39:33;;;;;;;12.97;8.37;;;5.30;99.90;;;;;;8192464;28;20051;-74
2020/12/28 20:43:34;;;;;;;12.35;8.82;;;4.20;99.90;;;;;;8192178;28;20113;-76
2020/12/28 20:47:43;;;;;;;11.02;7.85;;;4.20;99.90;;;;;;8335976;27;20560;-75
2020/12/28 20:51:47;;;;;;;;;;;4.60;99.90;;;;;;8262050;28;20492;-76
2020/12/28 20:55:49;;;;;;;12.02;7.50;;;4.20;99.60;;;;;;8239809;28;19922;-76
2020/12/28 20:59:50;;;;;;;12.52;8.32;;;4.40;99.90;;;;;;8229624;28;20046;-75
2020/12/28 21:03:52;;;;;;;16.50;9.43;;;4.50;99.80;;;;;;8241594;28;20089;-75
2020/12/28 21:07:54;;;;;;;30.80;18.53;;;4.30;99.70;;;;;;8259797;28;20043;-75
2020/12/28 21:11:55;;;;;;;15.45;10.88;;;4.10;99.80;;;;;;8253717;28;20555;-76
2020/12/28 21:15:57;;;;;;;15.97;10.43;;;4.20;99.90;;;;;;8271512;28;20543;-76
2020/12/28 21:19:59;;;;;;;;;;;4.30;99.90;;;;;;8259560;28;20050;-76
2020/12/28 21:24:00;;;;;;;15.00;9.20;;;4.30;99.50;;;;;;8227150;28;20111;-76
2020/12/28 21:28:02;;;;;;;16.30;10.23;;;3.90;99.30;;;;;;8261269;28;20038;-76
2020/12/28 21:32:03;;;;;;;12.95;9.23;;;4.60;99.60;;;;;;8258634;28;20663;-75